sensor_id;sensor_type;location;lat;lon;timestamp;pressure;altitude;pressure_sealevel;temperature;humidity
28004;BME280;15330;51.234;6.754;2023-04-21T00:00:45;100946.34;;;8.40;100.00
28004;BME280;15330;51.234;6.754;2023-04-21T00:03:11;100943.03;;;8.09;100.00
28004;BME280;15330;51.234;6.754;2023-04-21T00:05:36;100938.63;;;8.27;100.00
28004;BME280;15330;51.234;6.754;2023-04-21T00:08:06;100946.63;;;8.37;100.00
28004;BME280;15330;51.234;6.754;2023-04-21T00:10:32;100939.75;;;8.25;100.00
28004;BME280;15330;51.234;6.754;2023-04-21T00:12:57;100935.41;;;8.33;100.00
28004;BME280;15330;51.234;6.754;2023-04-21T00:15:22;100927.53;;;8.32;100.00
28004;BME280;15330;51.234;6.754;2023-04-21T00:17:48;100921.47;;;8.49;100.00
28004;BME280;15330;51.234;6.754;2023-04-21T00:20:13;100913.13;;;8.15;100.00
28004;BME280;15330;51.234;6.754;2023-04-21T00:22:39;100918.69;;;8.31;100.00
28004;BME280;15330;51.234;6.754;2023-04-21T00:25:05;100922.03;;;8.43;100.00
28004;BME280;15330;51.234;6.754;2023-04-21T00:27:31;100918.56;;;8.33;100.00
28004;BME280;15330;51.234;6.754;2023-04-21T00:29:56;100909.53;;;8.43;100.00
28004;BME280;15330;51.234;6.754;2023-04-21T00:32:21;100902.66;;;8.41;100.00
28004;BME280;15330;51.234;6.754;2023-04-21T00:34:47;100901.75;;;8.60;100.00
28004;BME280;15330;51.234;6.754;2023-04-21T00:37:12;100903.88;;;8.56;100.00
28004;BME280;15330;51.234;6.754;2023-04-21T00:39:37;100900.47;;;8.36;100.00
28004;BME280;15330;51.234;6.754;2023-04-21T00:42:03;100912.53;;;8.40;100.00
28004;BME280;15330;51.234;6.754;2023-04-21T00:44:28;100903.03;;;8.56;100.00
28004;BME280;15330;51.234;6.754;2023-04-21T00:46:54;100905.31;;;8.51;100.00
28004;BME280;15330;51.234;6.754;2023-04-21T00:49:19;100890.84;;;8.53;100.00
28004;BME280;15330;51.234;6.754;2023-04-21T00:51:45;100905.16;;;8.52;100.00
28004;BME280;15330;51.234;6.754;2023-04-21T00:54:10;100886.34;;;8.54;100.00
28004;BME280;15330;51.234;6.754;2023-04-21T00:56:36;100894.53;;;8.42;100.00
28004;BME280;15330;51.234;6.754;2023-04-21T00:59:02;100890.38;;;8.30;100.00
28004;BME280;15330;51.234;6.754;2023-04-21T01:01:29;100890.94;;;8.34;100.00
28004;BME280;15330;51.234;6.754;2023-04-21T01:03:58;100889.66;;;8.38;100.00
28004;BME280;15330;51.234;6.754;2023-04-21T01:06:26;100882.94;;;8.24;100.00
28004;BME280;15330;51.234;6.754;2023-04-21T01:08:52;100876.63;;;7.88;100.00
28004;BME280;15330;51.234;6.754;2023-04-21T01:11:18;100883.56;;;8.08;100.00
28004;BME280;15330;51.234;6.754;2023-04-21T01:13:43;100876.53;;;8.17;100.00
28004;BME280;15330;51.234;6.754;2023-04-21T01:16:15;100869.19;;;8.29;100.00
28004;BME280;15330;51.234;6.754;2023-04-21T01:18:41;100871.72;;;8.21;100.00
28004;BME280;15330;51.234;6.754;2023-04-21T01:21:06;100869.06;;;8.30;100.00
28004;BME280;15330;51.234;6.754;2023-04-21T01:23:32;100862.50;;;8.52;100.00
28004;BME280;15330;51.234;6.754;2023-04-21T01:25:57;100868.22;;;8.57;100.00
28004;BME280;15330;51.234;6.754;2023-04-21T01:28:23;100861.56;;;8.43;100.00
28004;BME280;15330;51.234;6.754;2023-04-21T01:30:49;100862.00;;;8.66;100.00
28004;BME280;15330;51.234;6.754;2023-04-21T01:33:16;100857.94;;;8.62;100.00
28004;BME280;15330;51.234;6.754;2023-04-21T01:35:41;100853.44;;;8.63;100.00
28004;BME280;15330;51.234;6.754;2023-04-21T01:38:07;100850.56;;;8.56;100.00
28004;BME280;15330;51.234;6.754;2023-04-21T01:40:32;100861.22;;;8.56;100.00
28004;BME280;15330;51.234;6.754;2023-04-21T01:42:58;100855.94;;;8.46;100.00
28004;BME280;15330;51.234;6.754;2023-04-21T01:45:23;100850.97;;;8.61;100.00
28004;BME280;15330;51.234;6.754;2023-04-21T01:47:49;100864.63;;;8.49;100.00
28004;BME280;15330;51.234;6.754;2023-04-21T01:50:14;100859.44;;;8.47;100.00
28004;BME280;15330;51.234;6.754;2023-04-21T01:52:40;100862.44;;;8.62;100.00
28004;BME280;15330;51.234;6.754;2023-04-21T01:55:06;100863.84;;;8.38;100.00
28004;BME280;15330;51.234;6.754;2023-04-21T01:57:31;100859.09;;;8.32;100.00
28004;BME280;15330;51.234;6.754;2023-04-21T01:59:56;100856.38;;;8.69;100.00
28004;BME280;15330;51.234;6.754;2023-04-21T02:02:22;100862.50;;;8.79;100.00
28004;BME280;15330;51.234;6.754;2023-04-21T02:04:47;100863.81;;;8.66;100.00
28004;BME280;15330;51.234;6.754;2023-04-21T02:07:13;100862.69;;;8.68;100.00
28004;BME280;15330;51.234;6.754;2023-04-21T02:09:38;100865.16;;;8.79;100.00
28004;BME280;15330;51.234;6.754;2023-04-21T02:12:04;100858.56;;;8.56;100.00
28004;BME280;15330;51.234;6.754;2023-04-21T02:14:29;100866.25;;;8.59;100.00
28004;BME280;15330;51.234;6.754;2023-04-21T02:16:54;100859.81;;;8.79;100.00
28004;BME280;15330;51.234;6.754;2023-04-21T02:19:20;100859.19;;;8.68;100.00
28004;BME280;15330;51.234;6.754;2023-04-21T02:21:46;100868.09;;;8.76;100.00
28004;BME280;15330;51.234;6.754;2023-04-21T02:24:11;100863.91;;;8.74;100.00
28004;BME280;15330;51.234;6.754;2023-04-21T02:26:36;100866.25;;;8.59;100.00
28004;BME280;15330;51.234;6.754;2023-04-21T02:29:02;100855.91;;;8.74;100.00
28004;BME280;15330;51.234;6.754;2023-04-21T02:31:28;100857.28;;;8.60;100.00
28004;BME280;15330;51.234;6.754;2023-04-21T02:33:53;100843.03;;;8.69;100.00
28004;BME280;15330;51.234;6.754;2023-04-21T02:36:19;100842.22;;;8.87;100.00
28004;BME280;15330;51.234;6.754;2023-04-21T02:38:44;100849.38;;;8.86;100.00
28004;BME280;15330;51.234;6.754;2023-04-21T02:41:10;100849.44;;;8.94;100.00
28004;BME280;15330;51.234;6.754;2023-04-21T02:43:35;100849.56;;;9.02;100.00
28004;BME280;15330;51.234;6.754;2023-04-21T02:46:07;100853.34;;;9.00;100.00
28004;BME280;15330;51.234;6.754;2023-04-21T02:48:36;100853.19;;;8.83;100.00
28004;BME280;15330;51.234;6.754;2023-04-21T02:51:02;100840.16;;;8.98;100.00
28004;BME280;15330;51.234;6.754;2023-04-21T02:53:28;100845.06;;;9.03;100.00
28004;BME280;15330;51.234;6.754;2023-04-21T02:55:53;100846.41;;;9.07;100.00
28004;BME280;15330;51.234;6.754;2023-04-21T02:58:19;100845.28;;;9.09;100.00
28004;BME280;15330;51.234;6.754;2023-04-21T03:00:45;100853.88;;;9.03;100.00
28004;BME280;15330;51.234;6.754;2023-04-21T03:03:10;100851.06;;;8.87;100.00
28004;BME280;15330;51.234;6.754;2023-04-21T03:05:35;100851.19;;;8.86;100.00
28004;BME280;15330;51.234;6.754;2023-04-21T03:08:01;100849.53;;;8.84;100.00
28004;BME280;15330;51.234;6.754;2023-04-21T03:10:26;100852.59;;;8.90;100.00
28004;BME280;15330;51.234;6.754;2023-04-21T03:12:52;100853.88;;;8.86;100.00
28004;BME280;15330;51.234;6.754;2023-04-21T03:15:18;100848.78;;;8.92;100.00
28004;BME280;15330;51.234;6.754;2023-04-21T03:17:43;100857.00;;;8.99;100.00
28004;BME280;15330;51.234;6.754;2023-04-21T03:20:09;100862.72;;;8.86;100.00
28004;BME280;15330;51.234;6.754;2023-04-21T03:22:36;100856.66;;;8.66;100.00
28004;BME280;15330;51.234;6.754;2023-04-21T03:25:01;100863.06;;;8.73;100.00
28004;BME280;15330;51.234;6.754;2023-04-21T03:27:27;100867.22;;;8.86;100.00
28004;BME280;15330;51.234;6.754;2023-04-21T03:29:52;100852.78;;;8.61;100.00
28004;BME280;15330;51.234;6.754;2023-04-21T03:32:18;100859.34;;;8.66;100.00
28004;BME280;15330;51.234;6.754;2023-04-21T03:34:43;100859.81;;;8.52;100.00
28004;BME280;15330;51.234;6.754;2023-04-21T03:37:08;100856.16;;;8.53;100.00
28004;BME280;15330;51.234;6.754;2023-04-21T03:39:34;100857.28;;;8.60;100.00
28004;BME280;15330;51.234;6.754;2023-04-21T03:41:59;100868.91;;;8.32;100.00
28004;BME280;15330;51.234;6.754;2023-04-21T03:44:25;100870.19;;;8.28;100.00
28004;BME280;15330;51.234;6.754;2023-04-21T03:46:52;100867.38;;;8.29;100.00
28004;BME280;15330;51.234;6.754;2023-04-21T03:49:18;100863.44;;;8.33;100.00
28004;BME280;15330;51.234;6.754;2023-04-21T03:51:43;100858.00;;;8.16;100.00
28004;BME280;15330;51.234;6.754;2023-04-21T03:54:08;100866.81;;;8.26;100.00
28004;BME280;15330;51.234;6.754;2023-04-21T03:56:34;100864.84;;;8.28;100.00
28004;BME280;15330;51.234;6.754;2023-04-21T03:58:59;100862.88;;;8.39;100.00
28004;BME280;15330;51.234;6.754;2023-04-21T04:01:25;100865.94;;;8.35;100.00
28004;BME280;15330;51.234;6.754;2023-04-21T04:03:50;100865.75;;;8.46;100.00
28004;BME280;15330;51.234;6.754;2023-04-21T04:06:16;100859.28;;;8.11;100.00
28004;BME280;15330;51.234;6.754;2023-04-21T04:08:42;100856.75;;;8.20;100.00
28004;BME280;15330;51.234;6.754;2023-04-21T04:11:07;100860.81;;;8.14;100.00
28004;BME280;15330;51.234;6.754;2023-04-21T04:13:32;100858.81;;;8.35;100.00
28004;BME280;15330;51.234;6.754;2023-04-21T04:15:58;100844.44;;;8.46;100.00
28004;BME280;15330;51.234;6.754;2023-04-21T04:18:23;100858.19;;;8.51;100.00
28004;BME280;15330;51.234;6.754;2023-04-21T04:20:49;100855.16;;;8.36;100.00
28004;BME280;15330;51.234;6.754;2023-04-21T04:23:15;100852.34;;;8.38;100.00
28004;BME280;15330;51.234;6.754;2023-04-21T04:25:40;100860.97;;;8.13;100.00
28004;BME280;15330;51.234;6.754;2023-04-21T04:28:06;100864.88;;;8.18;100.00
28004;BME280;15330;51.234;6.754;2023-04-21T04:30:33;100851.78;;;8.34;100.00
28004;BME280;15330;51.234;6.754;2023-04-21T04:32:59;100860.19;;;8.39;100.00
28004;BME280;15330;51.234;6.754;2023-04-21T04:35:25;100860.97;;;8.13;100.00
28004;BME280;15330;51.234;6.754;2023-04-21T04:37:50;100862.59;;;8.33;100.00
28004;BME280;15330;51.234;6.754;2023-04-21T04:40:16;100862.50;;;8.52;100.00
28004;BME280;15330;51.234;6.754;2023-04-21T04:42:42;100855.88;;;8.29;100.00
28004;BME280;15330;51.234;6.754;2023-04-21T04:45:08;100861.81;;;8.50;100.00
28004;BME280;15330;51.234;6.754;2023-04-21T04:47:34;100854.25;;;8.45;100.00
28004;BME280;15330;51.234;6.754;2023-04-21T04:49:59;100858.31;;;8.50;100.00
28004;BME280;15330;51.234;6.754;2023-04-21T04:52:25;100859.81;;;8.52;100.00
28004;BME280;15330;51.234;6.754;2023-04-21T04:54:50;100863.88;;;8.56;100.00
28004;BME280;15330;51.234;6.754;2023-04-21T04:57:16;100868.03;;;8.41;100.00
28004;BME280;15330;51.234;6.754;2023-04-21T04:59:41;100870.91;;;8.57;100.00
28004;BME280;15330;51.234;6.754;2023-04-21T05:02:06;100866.84;;;8.53;100.00
28004;BME280;15330;51.234;6.754;2023-04-21T05:04:35;100867.53;;;8.55;100.00
28004;BME280;15330;51.234;6.754;2023-04-21T05:07:01;100867.16;;;8.50;100.00
28004;BME280;15330;51.234;6.754;2023-04-21T05:09:26;100866.25;;;8.59;100.00
28004;BME280;15330;51.234;6.754;2023-04-21T05:11:51;100870.84;;;8.84;100.00
28004;BME280;15330;51.234;6.754;2023-04-21T05:14:17;100883.00;;;8.97;100.00
28004;BME280;15330;51.234;6.754;2023-04-21T05:16:42;100873.22;;;8.70;100.00
28004;BME280;15330;51.234;6.754;2023-04-21T05:19:08;100873.78;;;8.91;100.00
28004;BME280;15330;51.234;6.754;2023-04-21T05:21:33;100872.91;;;8.73;100.00
28004;BME280;15330;51.234;6.754;2023-04-21T05:23:59;100884.25;;;8.75;100.00
28004;BME280;15330;51.234;6.754;2023-04-21T05:26:26;100883.97;;;8.96;100.00
28004;BME280;15330;51.234;6.754;2023-04-21T05:28:53;100880.03;;;9.00;100.00
28004;BME280;15330;51.234;6.754;2023-04-21T05:31:18;100867.22;;;9.21;100.00
28004;BME280;15330;51.234;6.754;2023-04-21T05:33:44;100879.63;;;8.77;100.00
28004;BME280;15330;51.234;6.754;2023-04-21T05:36:09;100884.94;;;8.77;100.00
28004;BME280;15330;51.234;6.754;2023-04-21T05:38:36;100890.06;;;8.70;100.00
28004;BME280;15330;51.234;6.754;2023-04-21T05:41:02;100889.41;;;9.04;100.00
28004;BME280;15330;51.234;6.754;2023-04-21T05:43:27;100877.66;;;8.97;100.00
28004;BME280;15330;51.234;6.754;2023-04-21T05:45:53;100887.34;;;8.98;100.00
28004;BME280;15330;51.234;6.754;2023-04-21T05:48:18;100882.56;;;8.74;100.00
28004;BME280;15330;51.234;6.754;2023-04-21T05:50:44;100891.19;;;8.68;100.00
28004;BME280;15330;51.234;6.754;2023-04-21T05:53:09;100886.66;;;8.96;100.00
28004;BME280;15330;51.234;6.754;2023-04-21T05:55:35;100886.44;;;9.07;100.00
28004;BME280;15330;51.234;6.754;2023-04-21T05:58:02;100879.44;;;9.24;100.00
28004;BME280;15330;51.234;6.754;2023-04-21T06:00:29;100881.91;;;9.61;100.00
28004;BME280;15330;51.234;6.754;2023-04-21T06:02:54;100880.69;;;9.73;100.00
28004;BME280;15330;51.234;6.754;2023-04-21T06:05:20;100881.78;;;9.27;100.00
28004;BME280;15330;51.234;6.754;2023-04-21T06:07:45;100883.22;;;9.39;100.00
28004;BME280;15330;51.234;6.754;2023-04-21T06:10:12;100879.47;;;9.49;100.00
28004;BME280;15330;51.234;6.754;2023-04-21T06:12:38;100870.72;;;9.39;100.00
28004;BME280;15330;51.234;6.754;2023-04-21T06:15:03;100869.09;;;9.64;100.00
28004;BME280;15330;51.234;6.754;2023-04-21T06:17:29;100871.41;;;9.41;100.00
28004;BME280;15330;51.234;6.754;2023-04-21T06:19:54;100879.44;;;9.24;100.00
28004;BME280;15330;51.234;6.754;2023-04-21T06:22:23;100877.16;;;9.11;100.00
28004;BME280;15330;51.234;6.754;2023-04-21T06:24:49;100876.53;;;9.17;100.00
28004;BME280;15330;51.234;6.754;2023-04-21T06:27:14;100885.91;;;9.21;100.00
28004;BME280;15330;51.234;6.754;2023-04-21T06:29:40;100881.91;;;9.61;100.00
28004;BME280;15330;51.234;6.754;2023-04-21T06:32:09;100871.63;;;9.48;100.00
28004;BME280;15330;51.234;6.754;2023-04-21T06:34:35;100890.63;;;9.27;100.00
28004;BME280;15330;51.234;6.754;2023-04-21T06:37:01;100878.94;;;9.46;100.00
28004;BME280;15330;51.234;6.754;2023-04-21T06:39:26;100881.28;;;9.23;100.00
28004;BME280;15330;51.234;6.754;2023-04-21T06:41:52;100883.47;;;9.10;100.00
28004;BME280;15330;51.234;6.754;2023-04-21T06:44:17;100895.69;;;9.12;100.00
28004;BME280;15330;51.234;6.754;2023-04-21T06:46:43;100890.78;;;9.08;100.00
28004;BME280;15330;51.234;6.754;2023-04-21T06:49:08;100883.97;;;8.96;100.00
28004;BME280;15330;51.234;6.754;2023-04-21T06:51:34;100878.09;;;9.45;100.00
28004;BME280;15330;51.234;6.754;2023-04-21T06:54:00;100876.88;;;9.57;100.00
28004;BME280;15330;51.234;6.754;2023-04-21T06:56:26;100885.84;;;9.31;100.00
28004;BME280;15330;51.234;6.754;2023-04-21T06:58:52;100870.03;;;9.55;100.00
28004;BME280;15330;51.234;6.754;2023-04-21T07:01:17;100871.66;;;9.30;100.00
28004;BME280;15330;51.234;6.754;2023-04-21T07:03:43;100875.03;;;9.58;100.00
28004;BME280;15330;51.234;6.754;2023-04-21T07:06:09;100874.94;;;9.42;100.00
28004;BME280;15330;51.234;6.754;2023-04-21T07:08:35;100883.41;;;9.81;100.00
28004;BME280;15330;51.234;6.754;2023-04-21T07:11:00;100881.56;;;9.81;100.00
28004;BME280;15330;51.234;6.754;2023-04-21T07:13:26;100878.59;;;9.84;100.00
28004;BME280;15330;51.234;6.754;2023-04-21T07:15:51;100876.03;;;9.75;100.00
28004;BME280;15330;51.234;6.754;2023-04-21T07:18:17;100877.94;;;9.90;100.00
28004;BME280;15330;51.234;6.754;2023-04-21T07:20:43;100879.63;;;10.17;100.00
28004;BME280;15330;51.234;6.754;2023-04-21T07:23:08;100875.28;;;9.90;100.00
28004;BME280;15330;51.234;6.754;2023-04-21T07:25:33;100868.56;;;9.86;100.00
28004;BME280;15330;51.234;6.754;2023-04-21T07:27:59;100876.00;;;10.60;100.00
28004;BME280;15330;51.234;6.754;2023-04-21T07:30:24;100876.53;;;10.04;100.00
28004;BME280;15330;51.234;6.754;2023-04-21T07:32:50;100884.38;;;9.80;100.00
28004;BME280;15330;51.234;6.754;2023-04-21T07:35:15;100880.47;;;9.92;100.00
28004;BME280;15330;51.234;6.754;2023-04-21T07:37:41;100872.53;;;10.08;100.00
28004;BME280;15330;51.234;6.754;2023-04-21T07:40:07;100870.84;;;10.07;100.00
28004;BME280;15330;51.234;6.754;2023-04-21T07:42:33;100875.75;;;10.12;100.00
28004;BME280;15330;51.234;6.754;2023-04-21T07:44:58;100867.91;;;9.84;100.00
28004;BME280;15330;51.234;6.754;2023-04-21T07:47:25;100864.69;;;9.81;100.00
28004;BME280;15330;51.234;6.754;2023-04-21T07:49:51;100862.03;;;9.81;100.00
28004;BME280;15330;51.234;6.754;2023-04-21T07:52:16;100872.03;;;9.79;100.00
28004;BME280;15330;51.234;6.754;2023-04-21T07:54:42;100869.63;;;10.19;100.00
28004;BME280;15330;51.234;6.754;2023-04-21T07:57:07;100871.38;;;10.11;100.00
28004;BME280;15330;51.234;6.754;2023-04-21T07:59:33;100868.91;;;10.43;100.00
28004;BME280;15330;51.234;6.754;2023-04-21T08:01:58;100879.72;;;10.68;100.00
28004;BME280;15330;51.234;6.754;2023-04-21T08:04:24;100882.28;;;11.01;100.00
28004;BME280;15330;51.234;6.754;2023-04-21T08:06:49;100880.28;;;10.45;100.00
28004;BME280;15330;51.234;6.754;2023-04-21T08:09:15;100875.47;;;11.15;100.00
28004;BME280;15330;51.234;6.754;2023-04-21T08:11:40;100882.00;;;11.86;100.00
28004;BME280;15330;51.234;6.754;2023-04-21T08:14:05;100872.31;;;11.36;100.00
28004;BME280;15330;51.234;6.754;2023-04-21T08:16:33;100887.88;;;10.58;100.00
28004;BME280;15330;51.234;6.754;2023-04-21T08:18:58;100878.28;;;11.14;100.00
28004;BME280;15330;51.234;6.754;2023-04-21T08:21:24;100873.78;;;11.22;100.00
28004;BME280;15330;51.234;6.754;2023-04-21T08:23:49;100877.66;;;11.68;100.00
28004;BME280;15330;51.234;6.754;2023-04-21T08:26:15;100878.66;;;11.59;100.00
28004;BME280;15330;51.234;6.754;2023-04-21T08:28:41;100878.66;;;12.00;100.00
28004;BME280;15330;51.234;6.754;2023-04-21T08:31:06;100870.28;;;11.70;100.00
28004;BME280;15330;51.234;6.754;2023-04-21T08:33:32;100873.63;;;11.56;100.00
28004;BME280;15330;51.234;6.754;2023-04-21T08:35:58;100880.34;;;11.68;100.00
28004;BME280;15330;51.234;6.754;2023-04-21T08:38:23;100877.66;;;11.60;100.00
28004;BME280;15330;51.234;6.754;2023-04-21T08:40:49;100873.97;;;12.02;100.00
28004;BME280;15330;51.234;6.754;2023-04-21T08:43:14;100869.31;;;11.80;100.00
28004;BME280;15330;51.234;6.754;2023-04-21T08:45:40;100875.09;;;10.94;100.00
28004;BME280;15330;51.234;6.754;2023-04-21T08:48:05;100858.06;;;11.27;100.00
28004;BME280;15330;51.234;6.754;2023-04-21T08:50:32;100859.72;;;11.53;100.00
28004;BME280;15330;51.234;6.754;2023-04-21T08:52:58;100862.09;;;11.80;100.00
28004;BME280;15330;51.234;6.754;2023-04-21T08:55:31;100872.31;;;11.52;100.00
28004;BME280;15330;51.234;6.754;2023-04-21T08:57:57;100876.47;;;11.63;100.00
28004;BME280;15330;51.234;6.754;2023-04-21T09:00:23;100867.78;;;11.61;100.00
28004;BME280;15330;51.234;6.754;2023-04-21T09:02:53;100866.78;;;11.29;100.00
28004;BME280;15330;51.234;6.754;2023-04-21T09:05:24;100863.94;;;11.47;100.00
28004;BME280;15330;51.234;6.754;2023-04-21T09:07:50;100863.75;;;11.32;100.00
28004;BME280;15330;51.234;6.754;2023-04-21T09:10:22;100861.09;;;11.40;100.00
28004;BME280;15330;51.234;6.754;2023-04-21T09:12:51;100860.56;;;11.04;100.00
28004;BME280;15330;51.234;6.754;2023-04-21T09:15:20;100862.59;;;11.19;100.00
28004;BME280;15330;51.234;6.754;2023-04-21T09:17:46;100859.75;;;11.20;100.00
28004;BME280;15330;51.234;6.754;2023-04-21T09:20:14;100862.44;;;11.61;100.00
28004;BME280;15330;51.234;6.754;2023-04-21T09:22:40;100868.28;;;11.40;100.00
28004;BME280;15330;51.234;6.754;2023-04-21T09:25:05;100868.72;;;12.25;100.00
28004;BME280;15330;51.234;6.754;2023-04-21T09:27:31;100867.66;;;12.34;100.00
28004;BME280;15330;51.234;6.754;2023-04-21T09:30:02;100863.22;;;12.10;100.00
28004;BME280;15330;51.234;6.754;2023-04-21T09:32:28;100868.31;;;12.36;100.00
28004;BME280;15330;51.234;6.754;2023-04-21T09:34:59;100874.41;;;12.22;100.00
28004;BME280;15330;51.234;6.754;2023-04-21T09:37:24;100860.47;;;12.26;100.00
28004;BME280;15330;51.234;6.754;2023-04-21T09:39:50;100870.56;;;12.63;100.00
28004;BME280;15330;51.234;6.754;2023-04-21T09:42:15;100864.88;;;13.43;100.00
28004;BME280;15330;51.234;6.754;2023-04-21T09:44:40;100862.81;;;14.85;97.67
28004;BME280;15330;51.234;6.754;2023-04-21T09:47:09;100862.97;;;14.18;95.75
28004;BME280;15330;51.234;6.754;2023-04-21T09:49:35;100851.25;;;14.26;96.38
28004;BME280;15330;51.234;6.754;2023-04-21T09:52:01;100853.22;;;13.88;96.64
28004;BME280;15330;51.234;6.754;2023-04-21T09:54:32;100843.38;;;13.95;96.55
28004;BME280;15330;51.234;6.754;2023-04-21T09:57:00;100837.88;;;13.74;96.26
28004;BME280;15330;51.234;6.754;2023-04-21T09:59:33;100845.91;;;14.11;97.69
28004;BME280;15330;51.234;6.754;2023-04-21T10:01:59;100836.69;;;15.00;96.59
28004;BME280;15330;51.234;6.754;2023-04-21T10:04:26;100832.13;;;15.43;94.14
28004;BME280;15330;51.234;6.754;2023-04-21T10:06:52;100830.47;;;15.21;93.23
28004;BME280;15330;51.234;6.754;2023-04-21T10:09:21;100829.50;;;16.06;88.59
28004;BME280;15330;51.234;6.754;2023-04-21T10:11:47;100821.47;;;15.57;91.14
28004;BME280;15330;51.234;6.754;2023-04-21T10:14:12;100818.97;;;15.55;92.79
28004;BME280;15330;51.234;6.754;2023-04-21T10:16:38;100813.28;;;15.71;91.28
28004;BME280;15330;51.234;6.754;2023-04-21T10:19:26;100822.88;;;15.10;93.47
28004;BME280;15330;51.234;6.754;2023-04-21T10:21:55;100802.34;;;14.88;93.79
28004;BME280;15330;51.234;6.754;2023-04-21T10:24:21;100815.19;;;15.07;92.78
28004;BME280;15330;51.234;6.754;2023-04-21T10:26:49;100824.03;;;15.43;90.85
28004;BME280;15330;51.234;6.754;2023-04-21T10:29:14;100819.69;;;15.49;89.03
28004;BME280;15330;51.234;6.754;2023-04-21T10:34:12;100805.09;;;15.58;89.36
28004;BME280;15330;51.234;6.754;2023-04-21T10:39:09;100794.13;;;14.96;89.23
28004;BME280;15330;51.234;6.754;2023-04-21T10:41:41;100796.28;;;15.50;88.63
28004;BME280;15330;51.234;6.754;2023-04-21T10:44:14;100791.56;;;14.66;91.73
28004;BME280;15330;51.234;6.754;2023-04-21T10:46:51;100782.75;;;14.94;92.24
28004;BME280;15330;51.234;6.754;2023-04-21T10:49:24;100772.06;;;14.86;90.90
28004;BME280;15330;51.234;6.754;2023-04-21T10:54:22;100777.19;;;14.59;92.81
28004;BME280;15330;51.234;6.754;2023-04-21T10:56:54;100764.78;;;14.80;92.28
28004;BME280;15330;51.234;6.754;2023-04-21T10:59:20;100771.69;;;14.67;92.74
28004;BME280;15330;51.234;6.754;2023-04-21T11:01:46;100760.06;;;15.59;90.32
28004;BME280;15330;51.234;6.754;2023-04-21T11:04:19;100753.41;;;15.89;88.12
28004;BME280;15330;51.234;6.754;2023-04-21T11:09:35;100748.81;;;15.76;89.37
28004;BME280;15330;51.234;6.754;2023-04-21T11:12:04;100746.38;;;15.88;89.38
28004;BME280;15330;51.234;6.754;2023-04-21T11:14:32;100742.16;;;15.51;91.47
28004;BME280;15330;51.234;6.754;2023-04-21T11:17:00;100748.94;;;15.13;91.58
28004;BME280;15330;51.234;6.754;2023-04-21T11:19:25;100731.50;;;15.36;90.90
28004;BME280;15330;51.234;6.754;2023-04-21T11:21:54;100733.28;;;15.29;90.52
28004;BME280;15330;51.234;6.754;2023-04-21T11:24:20;100732.81;;;15.75;90.47
28004;BME280;15330;51.234;6.754;2023-04-21T11:26:46;100736.94;;;16.12;88.82
28004;BME280;15330;51.234;6.754;2023-04-21T11:29:11;100723.44;;;15.71;90.65
28004;BME280;15330;51.234;6.754;2023-04-21T11:31:39;100713.97;;;15.82;90.33
28004;BME280;15330;51.234;6.754;2023-04-21T11:34:06;100712.31;;;16.28;89.85
28004;BME280;15330;51.234;6.754;2023-04-21T11:36:33;100706.41;;;16.66;88.68
28004;BME280;15330;51.234;6.754;2023-04-21T11:38:58;100700.31;;;16.50;87.79
28004;BME280;15330;51.234;6.754;2023-04-21T11:41:24;100693.66;;;16.40;88.47
28004;BME280;15330;51.234;6.754;2023-04-21T11:43:50;100678.72;;;16.57;88.42
28004;BME280;15330;51.234;6.754;2023-04-21T11:46:24;100684.09;;;16.37;88.89
28004;BME280;15330;51.234;6.754;2023-04-21T11:49:07;100676.28;;;16.75;86.82
28004;BME280;15330;51.234;6.754;2023-04-21T11:51:42;100677.50;;;16.66;87.00
28004;BME280;15330;51.234;6.754;2023-04-21T11:54:10;100683.19;;;16.17;88.57
28004;BME280;15330;51.234;6.754;2023-04-21T11:56:41;100681.50;;;16.09;90.08
28004;BME280;15330;51.234;6.754;2023-04-21T11:59:14;100669.72;;;16.24;90.80
28004;BME280;15330;51.234;6.754;2023-04-21T12:01:50;100673.28;;;16.37;88.45
28004;BME280;15330;51.234;6.754;2023-04-21T12:04:23;100655.06;;;16.66;87.41
28004;BME280;15330;51.234;6.754;2023-04-21T12:06:58;100659.78;;;16.44;88.38
28004;BME280;15330;51.234;6.754;2023-04-21T12:09:24;100657.91;;;16.44;87.70
28004;BME280;15330;51.234;6.754;2023-04-21T12:11:53;100654.94;;;16.13;89.41
28004;BME280;15330;51.234;6.754;2023-04-21T12:14:21;100649.72;;;15.98;89.31
28004;BME280;15330;51.234;6.754;2023-04-21T12:16:55;100640.03;;;16.24;90.12
28004;BME280;15330;51.234;6.754;2023-04-21T12:19:21;100637.56;;;16.42;88.41
28004;BME280;15330;51.234;6.754;2023-04-21T12:21:52;100629.72;;;16.67;84.67
28004;BME280;15330;51.234;6.754;2023-04-21T12:24:17;100634.72;;;16.63;84.95
28004;BME280;15330;51.234;6.754;2023-04-21T12:26:42;100631.38;;;16.74;83.05
28004;BME280;15330;51.234;6.754;2023-04-21T12:29:08;100631.59;;;16.93;81.05
28004;BME280;15330;51.234;6.754;2023-04-21T12:31:33;100624.72;;;16.97;80.05
28004;BME280;15330;51.234;6.754;2023-04-21T12:33:59;100620.13;;;17.04;81.62
28004;BME280;15330;51.234;6.754;2023-04-21T12:36:24;100608.84;;;17.40;79.79
28004;BME280;15330;51.234;6.754;2023-04-21T12:38:51;100616.56;;;17.30;77.22
28004;BME280;15330;51.234;6.754;2023-04-21T12:41:17;100607.28;;;16.73;77.86
28004;BME280;15330;51.234;6.754;2023-04-21T12:43:43;100608.50;;;16.50;76.63
28004;BME280;15330;51.234;6.754;2023-04-21T12:46:08;100602.53;;;16.68;76.24
28004;BME280;15330;51.234;6.754;2023-04-21T12:48:33;100608.56;;;16.70;75.74
28004;BME280;15330;51.234;6.754;2023-04-21T12:50:59;100602.31;;;16.90;74.51
28004;BME280;15330;51.234;6.754;2023-04-21T12:53:25;100593.75;;;16.53;75.72